LAN3283 SBCT-SBGR
Flight info
| Callsign | LAN3283 |
|---|---|
| Flight time | 0h 48m |
| Altitude | 35000 |
| Route | XONUG UZ121 BUXUK |
| Aircraft | A306/H-SDE3FGHIRWY/LB1 |
Departure
| Time | 2026-05-09 06:38 |
|---|---|
| Airport | Curitiba-Afonso Pena International Airport (SBCT) |
Arrival
| Time | 2026-05-09 07:27 |
|---|---|
| Airport | São Paulo/Guarulhos–Governor André Franco Montoro International Airport (SBGR) |
| Time | Latitude | Longitude | Altitude | Speed | Heading |
|---|---|---|---|---|---|
| 2026-05-09 06:11 | -25.53899 | -49.16875 | 3001 ft | 0 kts | 223° |
| 2026-05-09 06:34 | -25.53900 | -49.16881 | 3001 ft | 1 kts | 249° |
| 2026-05-09 06:34 | -25.53892 | -49.16890 | 3001 ft | 2 kts | 327° |
| 2026-05-09 06:34 | -25.53859 | -49.16894 | 3001 ft | 7 kts | 4° |
| 2026-05-09 06:35 | -25.53793 | -49.16887 | 3001 ft | 13 kts | 348° |
| 2026-05-09 06:35 | -25.53700 | -49.16952 | 3000 ft | 17 kts | 316° |
| 2026-05-09 06:35 | -25.53651 | -49.16992 | 2999 ft | 0 kts | 3° |
| 2026-05-09 06:35 | -25.53633 | -49.16984 | 2999 ft | 0 kts | 27° |
| 2026-05-09 06:36 | -25.53622 | -49.16968 | 2999 ft | 9 kts | 61° |
| 2026-05-09 06:36 | -25.53617 | -49.16849 | 3000 ft | 18 kts | 92° |
| 2026-05-09 06:36 | -25.53582 | -49.16781 | 3000 ft | 8 kts | 351° |
| 2026-05-09 06:36 | -25.53539 | -49.16813 | 2999 ft | 0 kts | 316° |
| 2026-05-09 06:37 | -25.53536 | -49.16816 | 3001 ft | 6 kts | 316° |
| 2026-05-09 06:37 | -25.53375 | -49.16994 | 2998 ft | 65 kts | 315° |
| 2026-05-09 06:38 | -25.52902 | -49.17516 | 2988 ft | 125 kts | 315° |
| 2026-05-09 06:38 | -25.52162 | -49.18333 | 3038 ft | 172 kts | 315° |
| 2026-05-09 06:38 | -25.51253 | -49.19321 | 3469 ft | 197 kts | 316° |
| 2026-05-09 06:38 | -25.50187 | -49.20445 | 3979 ft | 221 kts | 315° |
| 2026-05-09 06:39 | -25.49169 | -49.21759 | 4710 ft | 233 kts | 307° |
| 2026-05-09 06:39 | -25.48340 | -49.23443 | 4957 ft | 267 kts | 298° |
| 2026-05-09 06:39 | -25.47646 | -49.25445 | 5411 ft | 284 kts | 291° |
| 2026-05-09 06:39 | -25.46823 | -49.27371 | 6528 ft | 270 kts | 310° |
| 2026-05-09 06:40 | -25.45324 | -49.28504 | 7732 ft | 259 kts | 338° |
| 2026-05-09 06:40 | -25.43551 | -49.28536 | 8558 ft | 263 kts | 8° |
| 2026-05-09 06:40 | -25.41907 | -49.27601 | 9254 ft | 275 kts | 23° |
| 2026-05-09 06:40 | -25.40262 | -49.26445 | 10117 ft | 278 kts | 22° |
| 2026-05-09 06:41 | -25.38552 | -49.25329 | 10613 ft | 296 kts | 20° |
| 2026-05-09 06:41 | -25.36704 | -49.24221 | 10939 ft | 316 kts | 19° |
| 2026-05-09 06:41 | -25.34693 | -49.23050 | 11252 ft | 337 kts | 21° |
| 2026-05-09 06:41 | -25.32664 | -49.21583 | 11543 ft | 363 kts | 31° |
| 2026-05-09 06:42 | -25.30752 | -49.19653 | 11954 ft | 379 kts | 37° |
| 2026-05-09 06:42 | -25.28869 | -49.17570 | 12499 ft | 386 kts | 38° |
| 2026-05-09 06:42 | -25.26960 | -49.15451 | 13080 ft | 392 kts | 38° |
| 2026-05-09 06:42 | -25.25019 | -49.13310 | 13667 ft | 397 kts | 38° |
| 2026-05-09 06:43 | -25.23052 | -49.11149 | 14222 ft | 401 kts | 38° |
| 2026-05-09 06:43 | -25.21056 | -49.08964 | 14745 ft | 406 kts | 38° |
| 2026-05-09 06:43 | -25.19042 | -49.06764 | 15305 ft | 409 kts | 38° |
| 2026-05-09 06:43 | -25.17003 | -49.04543 | 15844 ft | 413 kts | 38° |
| 2026-05-09 06:44 | -25.14952 | -49.02310 | 16415 ft | 416 kts | 38° |
| 2026-05-09 06:44 | -25.12881 | -49.00058 | 16941 ft | 420 kts | 38° |
| 2026-05-09 06:44 | -25.10788 | -48.97782 | 17456 ft | 425 kts | 38° |
| 2026-05-09 06:44 | -25.08676 | -48.95486 | 17979 ft | 429 kts | 38° |
| 2026-05-09 06:45 | -25.06540 | -48.93166 | 18452 ft | 432 kts | 38° |
| 2026-05-09 06:45 | -25.04391 | -48.90832 | 18905 ft | 435 kts | 38° |
| 2026-05-09 06:45 | -25.02227 | -48.88484 | 19344 ft | 438 kts | 39° |
| 2026-05-09 06:45 | -25.00051 | -48.86124 | 19770 ft | 441 kts | 39° |
| 2026-05-09 06:46 | -24.97852 | -48.83739 | 20173 ft | 444 kts | 39° |
| 2026-05-09 06:46 | -24.95642 | -48.81344 | 20607 ft | 447 kts | 39° |
| 2026-05-09 06:46 | -24.93419 | -48.78937 | 21027 ft | 450 kts | 39° |
| 2026-05-09 06:46 | -24.91180 | -48.76513 | 21432 ft | 453 kts | 39° |
| 2026-05-09 06:47 | -24.88925 | -48.74075 | 21835 ft | 455 kts | 39° |
| 2026-05-09 06:47 | -24.86666 | -48.71630 | 22207 ft | 458 kts | 39° |
| 2026-05-09 06:47 | -24.84384 | -48.69161 | 22591 ft | 460 kts | 39° |
| 2026-05-09 06:47 | -24.82098 | -48.66688 | 23001 ft | 462 kts | 39° |
| 2026-05-09 06:48 | -24.79797 | -48.64205 | 23377 ft | 465 kts | 39° |
| 2026-05-09 06:48 | -24.77486 | -48.61711 | 23719 ft | 467 kts | 39° |
| 2026-05-09 06:48 | -24.75161 | -48.59205 | 24074 ft | 468 kts | 39° |
| 2026-05-09 06:48 | -24.72824 | -48.56689 | 24412 ft | 470 kts | 39° |
| 2026-05-09 06:49 | -24.70486 | -48.54175 | 24753 ft | 472 kts | 39° |
| 2026-05-09 06:49 | -24.68140 | -48.51649 | 25057 ft | 473 kts | 39° |
| 2026-05-09 06:49 | -24.65812 | -48.49143 | 25341 ft | 476 kts | 39° |
| 2026-05-09 06:49 | -24.63436 | -48.46589 | 25633 ft | 478 kts | 39° |
| 2026-05-09 06:50 | -24.61059 | -48.44032 | 25979 ft | 479 kts | 39° |
| 2026-05-09 06:50 | -24.58671 | -48.41466 | 26266 ft | 481 kts | 39° |
| 2026-05-09 06:50 | -24.56267 | -48.38886 | 26533 ft | 484 kts | 39° |
| 2026-05-09 06:50 | -24.53856 | -48.36301 | 26807 ft | 486 kts | 39° |
| 2026-05-09 06:51 | -24.51434 | -48.33705 | 27090 ft | 487 kts | 39° |
| 2026-05-09 06:51 | -24.49006 | -48.31101 | 27342 ft | 489 kts | 39° |
| 2026-05-09 06:51 | -24.46570 | -48.28492 | 27595 ft | 492 kts | 39° |
| 2026-05-09 06:51 | -24.44115 | -48.25866 | 27843 ft | 493 kts | 39° |
| 2026-05-09 06:52 | -24.41652 | -48.23231 | 28059 ft | 496 kts | 39° |
| 2026-05-09 06:52 | -24.39177 | -48.20584 | 28332 ft | 496 kts | 39° |
| 2026-05-09 06:52 | -24.36704 | -48.17952 | 28668 ft | 495 kts | 38° |
| 2026-05-09 06:52 | -24.34052 | -48.15600 | 29037 ft | 486 kts | 28° |
| 2026-05-09 06:53 | -24.31162 | -48.13722 | 29383 ft | 481 kts | 23° |
| 2026-05-09 06:53 | -24.28219 | -48.11982 | 29700 ft | 481 kts | 22° |
| 2026-05-09 06:53 | -24.25269 | -48.10257 | 30062 ft | 480 kts | 22° |
| 2026-05-09 06:53 | -24.22323 | -48.08532 | 30357 ft | 480 kts | 22° |
| 2026-05-09 06:54 | -24.19356 | -48.06790 | 30717 ft | 477 kts | 22° |
| 2026-05-09 06:54 | -24.16420 | -48.05066 | 30871 ft | 480 kts | 22° |
| 2026-05-09 06:54 | -24.13473 | -48.03333 | 31123 ft | 481 kts | 22° |
| 2026-05-09 06:54 | -24.10527 | -48.01601 | 31440 ft | 480 kts | 22° |
| 2026-05-09 06:55 | -24.07583 | -47.99871 | 31773 ft | 479 kts | 22° |
| 2026-05-09 06:55 | -24.04648 | -47.98147 | 32079 ft | 479 kts | 22° |
| 2026-05-09 06:55 | -24.02700 | -47.97004 | 32285 ft | 479 kts | 22° |
| 2026-05-09 06:55 | -23.98814 | -47.94721 | 32702 ft | 478 kts | 22° |
| 2026-05-09 06:56 | -23.95883 | -47.93002 | 33005 ft | 478 kts | 22° |
| 2026-05-09 06:56 | -23.92951 | -47.91284 | 33327 ft | 478 kts | 22° |
| 2026-05-09 06:56 | -23.90025 | -47.89569 | 33627 ft | 477 kts | 22° |
| 2026-05-09 06:56 | -23.88046 | -47.88410 | 33838 ft | 477 kts | 22° |
| 2026-05-09 06:57 | -23.85130 | -47.86703 | 34123 ft | 476 kts | 22° |
| 2026-05-09 06:57 | -23.82209 | -47.84994 | 34403 ft | 476 kts | 22° |
| 2026-05-09 06:57 | -23.79291 | -47.83287 | 34692 ft | 475 kts | 22° |
| 2026-05-09 06:57 | -23.76451 | -47.81424 | 34910 ft | 481 kts | 31° |
| 2026-05-09 06:58 | -23.71496 | -47.76511 | 34875 ft | 480 kts | 39° |
| 2026-05-09 06:58 | -23.69105 | -47.73967 | 34419 ft | 480 kts | 39° |
| 2026-05-09 06:58 | -23.66713 | -47.71430 | 34059 ft | 479 kts | 39° |
| 2026-05-09 06:59 | -23.61969 | -47.66417 | 33385 ft | 472 kts | 39° |
| 2026-05-09 06:59 | -23.59586 | -47.63911 | 32350 ft | 479 kts | 39° |
| 2026-05-09 06:59 | -23.57181 | -47.61385 | 31411 ft | 483 kts | 39° |
| 2026-05-09 07:00 | -23.54753 | -47.58835 | 30525 ft | 486 kts | 39° |
| 2026-05-09 07:00 | -23.52319 | -47.56280 | 29731 ft | 485 kts | 39° |
| 2026-05-09 07:00 | -23.49893 | -47.53733 | 28964 ft | 482 kts | 39° |
| 2026-05-09 07:00 | -23.47494 | -47.51214 | 28277 ft | 477 kts | 39° |
| 2026-05-09 07:01 | -23.45118 | -47.48722 | 27658 ft | 472 kts | 39° |
| 2026-05-09 07:01 | -23.42765 | -47.46258 | 27012 ft | 467 kts | 38° |
| 2026-05-09 07:01 | -23.40439 | -47.43821 | 26415 ft | 461 kts | 38° |
| 2026-05-09 07:01 | -23.38154 | -47.41428 | 25456 ft | 450 kts | 38° |
| 2026-05-09 07:02 | -23.35944 | -47.39115 | 24313 ft | 445 kts | 38° |
| 2026-05-09 07:02 | -23.33728 | -47.36797 | 23181 ft | 438 kts | 38° |
| 2026-05-09 07:02 | -23.31555 | -47.34525 | 22056 ft | 429 kts | 38° |
| 2026-05-09 07:02 | -23.29408 | -47.32280 | 21686 ft | 415 kts | 38° |
| 2026-05-09 07:03 | -23.27385 | -47.30164 | 21526 ft | 403 kts | 37° |
| 2026-05-09 07:03 | -23.25389 | -47.28080 | 21301 ft | 393 kts | 37° |
| 2026-05-09 07:03 | -23.23437 | -47.26043 | 21052 ft | 386 kts | 37° |
| 2026-05-09 07:03 | -23.21478 | -47.24004 | 20820 ft | 385 kts | 37° |
| 2026-05-09 07:04 | -23.19545 | -47.21995 | 20579 ft | 384 kts | 37° |
| 2026-05-09 07:04 | -23.17619 | -47.19991 | 20340 ft | 382 kts | 37° |
| 2026-05-09 07:04 | -23.15726 | -47.18021 | 20104 ft | 381 kts | 37° |
| 2026-05-09 07:04 | -23.13851 | -47.15991 | 19876 ft | 381 kts | 39° |
| 2026-05-09 07:05 | -23.12048 | -47.13886 | 19621 ft | 380 kts | 40° |
| 2026-05-09 07:05 | -23.10259 | -47.11769 | 19442 ft | 379 kts | 40° |
| 2026-05-09 07:05 | -23.08482 | -47.09668 | 19204 ft | 377 kts | 40° |
| 2026-05-09 07:05 | -23.06713 | -47.07581 | 19052 ft | 375 kts | 40° |
| 2026-05-09 07:06 | -23.04951 | -47.05503 | 19016 ft | 375 kts | 40° |
| 2026-05-09 07:06 | -23.03164 | -47.03402 | 18709 ft | 380 kts | 40° |
| 2026-05-09 07:06 | -23.01370 | -47.01292 | 17761 ft | 383 kts | 40° |
| 2026-05-09 07:06 | -22.99555 | -46.99162 | 17012 ft | 382 kts | 41° |
| 2026-05-09 07:07 | -22.97757 | -46.97045 | 16360 ft | 380 kts | 41° |
| 2026-05-09 07:07 | -22.96007 | -46.94980 | 15746 ft | 367 kts | 42° |
| 2026-05-09 07:07 | -22.94295 | -46.92967 | 15131 ft | 357 kts | 42° |
| 2026-05-09 07:07 | -22.92645 | -46.91026 | 14659 ft | 345 kts | 43° |
| 2026-05-09 07:08 | -22.91064 | -46.89166 | 14389 ft | 326 kts | 42° |
| 2026-05-09 07:08 | -22.89550 | -46.87387 | 14098 ft | 318 kts | 42° |
| 2026-05-09 07:08 | -22.88061 | -46.85645 | 13926 ft | 314 kts | 42° |
| 2026-05-09 07:08 | -22.86674 | -46.83810 | 13777 ft | 317 kts | 52° |
| 2026-05-09 07:09 | -22.85549 | -46.81747 | 13754 ft | 319 kts | 56° |
| 2026-05-09 07:09 | -22.84488 | -46.79635 | 13749 ft | 319 kts | 57° |
| 2026-05-09 07:09 | -22.83433 | -46.77525 | 13749 ft | 318 kts | 57° |
| 2026-05-09 07:09 | -22.82376 | -46.75415 | 13742 ft | 319 kts | 57° |
| 2026-05-09 07:10 | -22.81374 | -46.73272 | 13890 ft | 321 kts | 63° |
| 2026-05-09 07:10 | -22.80639 | -46.70971 | 13976 ft | 324 kts | 69° |
| 2026-05-09 07:10 | -22.79995 | -46.68615 | 13992 ft | 325 kts | 69° |
| 2026-05-09 07:10 | -22.79364 | -46.66261 | 13985 ft | 325 kts | 69° |
| 2026-05-09 07:11 | -22.78736 | -46.63904 | 14000 ft | 326 kts | 71° |
| 2026-05-09 07:11 | -22.78364 | -46.61472 | 14001 ft | 330 kts | 81° |
| 2026-05-09 07:11 | -22.78205 | -46.58986 | 14007 ft | 331 kts | 83° |
| 2026-05-09 07:11 | -22.78077 | -46.56500 | 14002 ft | 331 kts | 83° |
| 2026-05-09 07:12 | -22.77950 | -46.54046 | 14007 ft | 331 kts | 83° |
| 2026-05-09 07:12 | -22.77955 | -46.51548 | 14003 ft | 334 kts | 92° |
| 2026-05-09 07:12 | -22.78284 | -46.49048 | 14012 ft | 335 kts | 96° |
| 2026-05-09 07:12 | -22.78679 | -46.46561 | 14010 ft | 335 kts | 97° |
| 2026-05-09 07:13 | -22.79080 | -46.44072 | 14012 ft | 335 kts | 97° |
| 2026-05-09 07:13 | -22.79536 | -46.41593 | 14012 ft | 337 kts | 104° |
| 2026-05-09 07:13 | -22.80376 | -46.39213 | 14017 ft | 339 kts | 112° |
| 2026-05-09 07:13 | -22.81351 | -46.36889 | 14013 ft | 339 kts | 114° |
| 2026-05-09 07:14 | -22.82659 | -46.34768 | 14015 ft | 341 kts | 135° |
| 2026-05-09 07:14 | -22.84630 | -46.33395 | 14018 ft | 337 kts | 163° |
| 2026-05-09 07:14 | -22.86909 | -46.33091 | 13965 ft | 328 kts | 189° |
| 2026-05-09 07:14 | -22.89045 | -46.33809 | 13575 ft | 320 kts | 212° |
| 2026-05-09 07:15 | -22.90964 | -46.35031 | 13092 ft | 320 kts | 216° |
| 2026-05-09 07:15 | -22.92836 | -46.36309 | 12716 ft | 317 kts | 217° |
| 2026-05-09 07:15 | -22.94700 | -46.37579 | 12303 ft | 316 kts | 217° |
| 2026-05-09 07:15 | -22.96556 | -46.38829 | 11951 ft | 312 kts | 216° |
| 2026-05-09 07:16 | -22.98394 | -46.40057 | 11701 ft | 309 kts | 216° |
| 2026-05-09 07:16 | -23.00223 | -46.41275 | 11460 ft | 308 kts | 216° |
| 2026-05-09 07:16 | -23.02050 | -46.42491 | 11207 ft | 307 kts | 216° |
| 2026-05-09 07:16 | -23.03867 | -46.43699 | 10964 ft | 306 kts | 216° |
| 2026-05-09 07:17 | -23.05677 | -46.44900 | 10716 ft | 305 kts | 217° |
| 2026-05-09 07:17 | -23.07484 | -46.46097 | 10471 ft | 303 kts | 217° |
| 2026-05-09 07:17 | -23.09283 | -46.47292 | 10232 ft | 303 kts | 217° |
| 2026-05-09 07:17 | -23.11076 | -46.48482 | 9988 ft | 301 kts | 216° |
| 2026-05-09 07:18 | -23.12859 | -46.49663 | 9742 ft | 299 kts | 217° |
| 2026-05-09 07:18 | -23.14622 | -46.50834 | 9513 ft | 295 kts | 217° |
| 2026-05-09 07:18 | -23.16350 | -46.51982 | 9339 ft | 286 kts | 218° |
| 2026-05-09 07:18 | -23.18033 | -46.53097 | 9112 ft | 280 kts | 218° |
| 2026-05-09 07:19 | -23.19677 | -46.54187 | 8905 ft | 275 kts | 218° |
| 2026-05-09 07:19 | -23.21290 | -46.55286 | 8655 ft | 272 kts | 219° |
| 2026-05-09 07:19 | -23.22871 | -46.56399 | 8384 ft | 271 kts | 220° |
| 2026-05-09 07:19 | -23.24444 | -46.57520 | 8149 ft | 271 kts | 220° |
| 2026-05-09 07:20 | -23.26022 | -46.58643 | 7909 ft | 271 kts | 220° |
| 2026-05-09 07:20 | -23.27596 | -46.59763 | 7681 ft | 270 kts | 220° |
| 2026-05-09 07:20 | -23.29169 | -46.60878 | 7472 ft | 270 kts | 220° |
| 2026-05-09 07:20 | -23.30767 | -46.62013 | 7243 ft | 271 kts | 220° |
| 2026-05-09 07:21 | -23.32324 | -46.63120 | 7025 ft | 271 kts | 220° |
| 2026-05-09 07:21 | -23.33902 | -46.64239 | 6819 ft | 270 kts | 220° |
| 2026-05-09 07:21 | -23.35474 | -46.65355 | 6594 ft | 269 kts | 220° |
| 2026-05-09 07:21 | -23.37041 | -46.66470 | 6366 ft | 270 kts | 220° |
| 2026-05-09 07:22 | -23.38610 | -46.67585 | 6155 ft | 269 kts | 219° |
| 2026-05-09 07:22 | -23.40213 | -46.68656 | 5977 ft | 274 kts | 211° |
| 2026-05-09 07:22 | -23.42096 | -46.69111 | 5654 ft | 286 kts | 178° |
| 2026-05-09 07:22 | -23.43958 | -46.68413 | 5325 ft | 283 kts | 141° |
| 2026-05-09 07:23 | -23.45228 | -46.66846 | 5150 ft | 277 kts | 120° |
| 2026-05-09 07:23 | -23.46277 | -46.65068 | 4856 ft | 281 kts | 118° |
| 2026-05-09 07:23 | -23.47122 | -46.63219 | 4613 ft | 263 kts | 96° |
| 2026-05-09 07:23 | -23.47234 | -46.61305 | 4493 ft | 244 kts | 79° |
| 2026-05-09 07:24 | -23.46869 | -46.59634 | 4449 ft | 212 kts | 63° |
| 2026-05-09 07:24 | -23.46406 | -46.58176 | 4291 ft | 197 kts | 65° |
| 2026-05-09 07:24 | -23.46054 | -46.56767 | 4004 ft | 186 kts | 68° |
| 2026-05-09 07:24 | -23.45708 | -46.55482 | 3783 ft | 167 kts | 66° |
| 2026-05-09 07:25 | -23.45396 | -46.54342 | 3567 ft | 154 kts | 67° |
| 2026-05-09 07:25 | -23.45105 | -46.53241 | 3434 ft | 147 kts | 69° |
| 2026-05-09 07:25 | -23.44824 | -46.52178 | 3214 ft | 144 kts | 70° |
| 2026-05-09 07:25 | -23.44559 | -46.51145 | 3053 ft | 138 kts | 70° |
| 2026-05-09 07:26 | -23.44285 | -46.50152 | 2814 ft | 136 kts | 65° |
| 2026-05-09 07:26 | -23.44014 | -46.49172 | 2576 ft | 133 kts | 69° |
| 2026-05-09 07:26 | -23.43757 | -46.48246 | 2469 ft | 119 kts | 71° |
| 2026-05-09 07:26 | -23.43577 | -46.47580 | 2476 ft | 71 kts | 71° |
| 2026-05-09 07:27 | -23.43445 | -46.47101 | 2471 ft | 52 kts | 70° |
| 2026-05-09 07:27 | -23.43305 | -46.46867 | 2471 ft | 34 kts | 45° |
| 2026-05-09 07:27 | -23.43185 | -46.46749 | 2474 ft | 13 kts | 46° |
| 2026-05-09 07:27 | -23.43114 | -46.46720 | 2475 ft | 13 kts | 358° |
| 2026-05-09 07:28 | -23.42988 | -46.46748 | 2472 ft | 22 kts | 342° |
| 2026-05-09 07:28 | -23.42877 | -46.46799 | 2471 ft | 13 kts | 310° |
| 2026-05-09 07:28 | -23.42871 | -46.46914 | 2474 ft | 14 kts | 258° |
| 2026-05-09 07:28 | -23.42894 | -46.47005 | 2477 ft | 14 kts | 254° |
| 2026-05-09 07:29 | -23.42924 | -46.47116 | 2476 ft | 16 kts | 253° |
| 2026-05-09 07:29 | -23.42959 | -46.47243 | 2470 ft | 19 kts | 253° |
| 2026-05-09 07:29 | -23.42993 | -46.47379 | 2474 ft | 18 kts | 257° |
| 2026-05-09 07:29 | -23.42953 | -46.47481 | 2472 ft | 11 kts | 285° |
| 2026-05-09 07:30 | -23.42972 | -46.47599 | 2472 ft | 18 kts | 252° |
| 2026-05-09 07:30 | -23.43006 | -46.47724 | 2471 ft | 16 kts | 253° |
| 2026-05-09 07:30 | -23.42999 | -46.47801 | 2474 ft | 10 kts | 307° |
| 2026-05-09 07:30 | -23.42952 | -46.47854 | 2470 ft | 9 kts | 315° |
| 2026-05-09 07:31 | -23.42917 | -46.47902 | 2473 ft | 5 kts | 303° |
| 2026-05-09 07:31 | -23.42910 | -46.47916 | 2472 ft | 4 kts | 304° |
| 2026-05-09 07:31 | -23.42899 | -46.47933 | 2474 ft | 0 kts | 301° |
| 2026-05-09 07:31 | -23.42899 | -46.47935 | 2474 ft | 0 kts | 301° |
| 2026-05-09 07:32 | -23.42898 | -46.47935 | 2474 ft | 0 kts | 302° |